createdAt,value
2023-12-09T00:00:47.236Z,1.70
2023-12-09T00:03:36.148Z,1.72
2023-12-09T00:06:05.596Z,1.73
2023-12-09T00:08:34.031Z,1.73
2023-12-09T00:11:02.517Z,1.73
2023-12-09T00:13:33.438Z,1.69
2023-12-09T00:16:01.799Z,1.63
2023-12-09T00:18:30.212Z,1.59
2023-12-09T00:20:58.998Z,1.55
2023-12-09T00:23:27.673Z,1.52
2023-12-09T00:25:56.041Z,1.49
2023-12-09T00:28:24.406Z,1.45
2023-12-09T00:30:52.992Z,1.41
2023-12-09T00:33:21.593Z,1.40
2023-12-09T00:35:50.580Z,1.39
2023-12-09T00:38:18.983Z,1.42
2023-12-09T00:40:47.318Z,1.46
2023-12-09T00:43:15.732Z,1.50
2023-12-09T00:45:44.046Z,1.56
2023-12-09T00:48:12.861Z,1.62
2023-12-09T00:50:41.579Z,1.66
2023-12-09T00:53:10.203Z,1.70
2023-12-09T00:55:38.586Z,1.72
2023-12-09T00:58:07.023Z,1.69
2023-12-09T01:00:35.350Z,1.64
2023-12-09T01:03:03.745Z,1.62
2023-12-09T01:05:32.226Z,1.55
2023-12-09T01:08:00.609Z,1.48
2023-12-09T01:10:28.795Z,1.48
2023-12-09T01:12:57.131Z,1.49
2023-12-09T01:15:25.443Z,1.50
2023-12-09T01:17:53.894Z,1.48
2023-12-09T01:20:22.406Z,1.45
2023-12-09T01:22:50.693Z,1.42
2023-12-09T01:25:19.660Z,1.40
2023-12-09T01:27:48.290Z,1.38
2023-12-09T01:30:16.762Z,1.38
2023-12-09T01:32:45.439Z,1.38
2023-12-09T01:35:14.111Z,1.40
2023-12-09T01:37:44.950Z,1.40
2023-12-09T01:40:17.192Z,1.42
2023-12-09T01:42:46.628Z,1.42
2023-12-09T01:45:15.198Z,1.42
2023-12-09T01:47:44.819Z,1.45
2023-12-09T01:50:13.405Z,1.47
2023-12-09T01:52:42.813Z,1.49
2023-12-09T01:55:12.294Z,1.51
2023-12-09T01:57:40.766Z,1.47
2023-12-09T02:00:11.129Z,1.41
2023-12-09T02:02:39.634Z,1.41
2023-12-09T02:05:09.104Z,1.37
2023-12-09T02:07:37.309Z,1.34
2023-12-09T02:10:07.177Z,1.34
2023-12-09T02:12:49.535Z,1.36
2023-12-09T02:15:51.657Z,1.38
2023-12-09T02:18:20.813Z,1.39
2023-12-09T02:20:49.213Z,1.41
2023-12-09T02:23:17.792Z,1.40
2023-12-09T02:25:50.418Z,1.38
2023-12-09T02:28:25.010Z,1.39
2023-12-09T02:31:10.476Z,1.42
2023-12-09T02:33:41.906Z,1.44
2023-12-09T02:36:18.809Z,1.44
2023-12-09T02:38:50.276Z,1.44
2023-12-09T02:41:20.335Z,1.45
2023-12-09T02:43:49.069Z,1.50
2023-12-09T02:46:17.425Z,1.57
2023-12-09T02:48:46.457Z,1.62
2023-12-09T02:51:15.149Z,1.66
2023-12-09T02:53:45.740Z,1.72
2023-12-09T02:56:14.621Z,1.77
2023-12-09T02:58:43.746Z,1.83
2023-12-09T03:01:12.595Z,1.88
2023-12-09T03:03:41.213Z,1.90
2023-12-09T03:06:09.789Z,1.93
2023-12-09T03:08:38.446Z,1.95
2023-12-09T03:11:07.439Z,1.95
2023-12-09T03:13:36.637Z,1.95
2023-12-09T03:16:05.810Z,1.96
2023-12-09T03:18:34.526Z,1.93
2023-12-09T03:21:02.984Z,1.89
2023-12-09T03:23:31.591Z,1.85
2023-12-09T03:26:00.219Z,1.80
2023-12-09T03:28:28.867Z,1.73
2023-12-09T03:30:57.243Z,1.68
2023-12-09T03:33:25.724Z,1.62
2023-12-09T03:35:54.584Z,1.59
2023-12-09T03:38:22.857Z,1.56
2023-12-09T03:40:51.259Z,1.52
2023-12-09T03:43:19.901Z,1.50
2023-12-09T03:45:48.645Z,1.48
2023-12-09T03:48:17.969Z,1.46
2023-12-09T03:50:47.202Z,1.43
2023-12-09T03:53:18.867Z,1.42
2023-12-09T03:55:47.777Z,1.40
2023-12-09T03:58:16.295Z,1.40
2023-12-09T04:00:46.125Z,1.43
2023-12-09T04:03:14.631Z,1.47
2023-12-09T04:05:43.171Z,1.52
2023-12-09T04:08:11.625Z,1.54
2023-12-09T04:10:39.963Z,1.59
2023-12-09T04:13:08.557Z,1.63
2023-12-09T04:15:40.036Z,1.67
2023-12-09T04:18:08.952Z,1.70
2023-12-09T04:20:38.043Z,1.73
2023-12-09T04:23:06.570Z,1.77
2023-12-09T04:25:35.271Z,1.80
2023-12-09T04:28:04.325Z,1.77
2023-12-09T04:30:32.935Z,1.68
2023-12-09T04:33:01.755Z,1.58
2023-12-09T04:35:30.201Z,1.53
2023-12-09T04:37:58.597Z,1.49
2023-12-09T04:40:27.060Z,1.49
2023-12-09T04:42:55.396Z,1.49
2023-12-09T04:45:24.127Z,1.49
2023-12-09T04:47:53.422Z,1.49
2023-12-09T04:50:22.627Z,1.48
2023-12-09T04:52:51.173Z,1.46
2023-12-09T04:55:19.573Z,1.44
2023-12-09T04:57:48.143Z,1.43
2023-12-09T05:00:16.927Z,1.42
2023-12-09T05:02:45.719Z,1.39
2023-12-09T05:05:15.427Z,1.37
2023-12-09T05:07:43.841Z,1.33
2023-12-09T05:10:13.834Z,1.29
2023-12-09T05:12:42.491Z,1.29
2023-12-09T05:15:12.311Z,1.29
2023-12-09T05:17:40.955Z,1.27
2023-12-09T05:20:11.290Z,1.29
2023-12-09T05:22:39.765Z,1.30
2023-12-09T05:25:08.610Z,1.34
2023-12-09T05:27:37.034Z,1.39
2023-12-09T05:30:06.340Z,1.46
2023-12-09T05:32:34.807Z,1.54
2023-12-09T05:35:03.815Z,1.60
2023-12-09T05:37:32.732Z,1.63
2023-12-09T05:40:01.132Z,1.58
2023-12-09T05:42:30.120Z,1.54
2023-12-09T05:45:00.160Z,1.54
2023-12-09T05:47:29.380Z,1.49
2023-12-09T05:49:57.891Z,1.43
2023-12-09T05:52:26.616Z,1.38
2023-12-09T05:54:55.314Z,1.30
2023-12-09T05:57:24.031Z,1.26
2023-12-09T05:59:52.309Z,1.23
2023-12-09T06:02:20.842Z,1.22
2023-12-09T06:04:49.599Z,1.21
2023-12-09T06:07:18.109Z,1.22
2023-12-09T06:09:46.600Z,1.22
2023-12-09T06:12:15.131Z,1.19
2023-12-09T06:14:43.801Z,1.19
2023-12-09T06:17:12.187Z,1.20
2023-12-09T06:19:42.063Z,1.21
2023-12-09T06:22:10.768Z,1.22
2023-12-09T06:24:39.160Z,1.25
2023-12-09T06:27:07.610Z,1.30
2023-12-09T06:29:36.549Z,1.35
2023-12-09T06:32:05.937Z,1.39
2023-12-09T06:34:34.908Z,1.40
2023-12-09T06:37:03.530Z,1.44
2023-12-09T06:39:32.324Z,1.48
2023-12-09T06:42:01.561Z,1.44
2023-12-09T06:44:30.161Z,1.42
2023-12-09T06:46:58.740Z,1.43
2023-12-09T06:49:27.807Z,1.43
2023-12-09T06:51:56.328Z,1.39
2023-12-09T06:54:24.773Z,1.33
2023-12-09T06:56:53.475Z,1.31
2023-12-09T06:59:22.072Z,1.27
2023-12-09T07:01:51.126Z,1.24
2023-12-09T07:04:20.237Z,1.24
2023-12-09T07:06:48.512Z,1.23
2023-12-09T07:09:16.981Z,1.26
2023-12-09T07:11:45.766Z,1.27
2023-12-09T07:14:16.728Z,1.28
2023-12-09T07:16:45.703Z,1.32
2023-12-09T07:19:14.402Z,1.37
2023-12-09T07:21:43.056Z,1.43
2023-12-09T07:24:11.610Z,1.50
2023-12-09T07:26:40.101Z,1.48
2023-12-09T07:29:09.094Z,1.47
2023-12-09T07:31:37.684Z,1.46
2023-12-09T07:34:06.168Z,1.40
2023-12-09T07:36:34.660Z,1.33
2023-12-09T07:39:03.367Z,1.31
2023-12-09T07:41:31.996Z,1.35
2023-12-09T07:44:00.712Z,1.37
2023-12-09T07:46:29.524Z,1.39
2023-12-09T07:48:58.364Z,1.48
2023-12-09T07:51:26.726Z,1.57
2023-12-09T07:53:55.280Z,1.58
2023-12-09T07:56:23.790Z,1.64
2023-12-09T07:58:52.206Z,1.63
2023-12-09T08:01:21.149Z,1.69
2023-12-09T08:03:49.612Z,1.71
2023-12-09T08:06:18.193Z,1.77
2023-12-09T08:08:48.061Z,1.79
2023-12-09T08:11:16.577Z,1.74
2023-12-09T08:13:45.186Z,1.70
2023-12-09T08:16:14.981Z,1.66
2023-12-09T08:18:44.642Z,1.70
2023-12-09T08:21:13.197Z,1.70
2023-12-09T08:23:41.625Z,1.72
2023-12-09T08:26:11.766Z,1.73
2023-12-09T08:28:40.183Z,1.71
2023-12-09T08:31:09.712Z,1.75
2023-12-09T08:33:38.591Z,1.78
2023-12-09T08:36:08.029Z,1.84
2023-12-09T08:38:36.539Z,1.95
2023-12-09T08:41:05.369Z,2.02
2023-12-09T08:43:33.772Z,2.11
2023-12-09T08:46:02.248Z,2.17
2023-12-09T08:48:30.772Z,2.14
2023-12-09T08:50:59.439Z,2.20
2023-12-09T08:53:27.977Z,2.21
2023-12-09T08:55:56.440Z,2.20
2023-12-09T08:58:24.714Z,2.20
2023-12-09T09:00:53.678Z,2.24
2023-12-09T09:03:22.767Z,2.26
2023-12-09T09:05:51.175Z,2.32
2023-12-09T09:08:19.871Z,2.39
2023-12-09T09:10:48.747Z,2.44
2023-12-09T09:13:17.463Z,2.51
2023-12-09T09:15:45.987Z,2.60
2023-12-09T09:18:15.201Z,2.62
2023-12-09T09:20:44.376Z,2.64
2023-12-09T09:23:14.512Z,2.63
2023-12-09T09:25:43.023Z,2.67
2023-12-09T09:28:11.262Z,2.68
2023-12-09T09:30:39.772Z,2.77
2023-12-09T09:33:08.372Z,2.82
2023-12-09T09:35:37.358Z,2.83
2023-12-09T09:38:05.760Z,2.89
2023-12-09T09:40:34.397Z,2.96
2023-12-09T09:43:10.098Z,2.96
2023-12-09T09:45:39.570Z,2.99
2023-12-09T09:48:14.370Z,3.03
2023-12-09T09:50:46.797Z,3.06
2023-12-09T09:53:21.561Z,3.08
2023-12-09T09:55:50.779Z,3.04
2023-12-09T09:58:19.644Z,3.05
2023-12-09T10:00:48.211Z,3.04
2023-12-09T10:03:16.928Z,3.02
2023-12-09T10:05:45.279Z,3.01
2023-12-09T10:08:13.562Z,3.00
2023-12-09T10:10:41.878Z,3.03
2023-12-09T10:13:10.619Z,3.06
2023-12-09T10:15:39.347Z,3.00
2023-12-09T10:18:14.539Z,2.81
2023-12-09T10:20:46.877Z,2.68
2023-12-09T10:23:17.262Z,2.67
2023-12-09T10:25:48.484Z,2.65
2023-12-09T10:28:17.060Z,2.61
2023-12-09T10:30:47.303Z,2.71
2023-12-09T10:33:16.894Z,2.86
2023-12-09T10:35:46.027Z,2.93
2023-12-09T10:38:17.875Z,2.85
2023-12-09T10:40:46.140Z,2.75
2023-12-09T10:43:14.911Z,2.84
2023-12-09T10:45:44.244Z,2.94
2023-12-09T10:48:13.017Z,2.99
2023-12-09T10:50:46.304Z,2.94
2023-12-09T10:53:14.780Z,2.81
2023-12-09T10:55:43.173Z,2.66
2023-12-09T10:58:13.553Z,2.50
2023-12-09T11:00:43.343Z,2.40
2023-12-09T11:03:12.234Z,2.48
2023-12-09T11:05:45.972Z,2.59
2023-12-09T11:08:15.227Z,2.68
2023-12-09T11:10:44.189Z,2.77
2023-12-09T11:13:13.385Z,2.85
2023-12-09T11:15:44.797Z,2.88
2023-12-09T11:18:15.769Z,2.93
2023-12-09T11:20:47.594Z,2.92
2023-12-09T11:23:16.199Z,2.91
2023-12-09T11:25:45.263Z,2.94
2023-12-09T11:28:14.430Z,2.93
2023-12-09T11:30:46.333Z,2.92
2023-12-09T11:33:15.443Z,2.90
2023-12-09T11:35:47.422Z,2.92
2023-12-09T11:38:17.539Z,2.93
2023-12-09T11:40:46.985Z,2.93
2023-12-09T11:43:16.906Z,2.96
2023-12-09T11:45:45.367Z,3.01
2023-12-09T11:48:14.615Z,3.09
2023-12-09T11:50:43.045Z,3.16
2023-12-09T11:53:11.516Z,3.22
2023-12-09T11:55:40.955Z,3.28
2023-12-09T11:58:11.242Z,3.33
2023-12-09T12:00:40.172Z,3.35
2023-12-09T12:03:09.002Z,3.22
2023-12-09T12:05:38.408Z,3.14
2023-12-09T12:08:07.091Z,3.07
2023-12-09T12:10:37.696Z,3.04
2023-12-09T12:13:06.671Z,2.96
2023-12-09T12:15:35.988Z,2.94
2023-12-09T12:18:04.549Z,2.90
2023-12-09T12:20:33.030Z,2.86
2023-12-09T12:23:01.834Z,2.82
2023-12-09T12:25:30.169Z,2.63
2023-12-09T12:27:58.839Z,2.49
2023-12-09T12:30:28.348Z,2.34
2023-12-09T12:32:57.897Z,2.22
2023-12-09T12:35:27.770Z,2.20
2023-12-09T12:37:59.312Z,2.28
2023-12-09T12:40:28.161Z,2.37
2023-12-09T12:42:56.868Z,2.51
2023-12-09T12:45:28.716Z,2.60
2023-12-09T12:47:58.089Z,2.67
2023-12-09T12:50:26.931Z,2.77
2023-12-09T12:52:56.179Z,2.85
2023-12-09T12:55:25.078Z,2.88
2023-12-09T12:57:56.060Z,2.92
2023-12-09T13:00:25.347Z,2.95
2023-12-09T13:02:54.166Z,3.00
2023-12-09T13:05:24.239Z,3.03
2023-12-09T13:07:53.396Z,3.03
2023-12-09T13:10:21.834Z,3.00
2023-12-09T13:12:50.420Z,2.97
2023-12-09T13:15:18.905Z,2.91
2023-12-09T13:17:47.352Z,2.83
2023-12-09T13:20:15.826Z,2.77
2023-12-09T13:22:47.151Z,2.65
2023-12-09T13:25:17.836Z,2.58
2023-12-09T13:27:47.344Z,2.54
2023-12-09T13:30:16.162Z,2.52
2023-12-09T13:32:47.022Z,2.53
2023-12-09T13:35:16.523Z,2.53
2023-12-09T13:37:46.242Z,2.50
2023-12-09T13:40:15.310Z,2.45
2023-12-09T13:42:44.098Z,2.43
2023-12-09T13:45:14.878Z,2.40
2023-12-09T13:47:43.254Z,2.35
2023-12-09T13:50:12.745Z,2.26
2023-12-09T13:52:41.462Z,2.18
2023-12-09T13:55:10.442Z,2.08
2023-12-09T13:57:39.158Z,2.03
2023-12-09T14:00:09.534Z,2.03
2023-12-09T14:02:41.103Z,1.98
2023-12-09T14:05:11.814Z,1.90
2023-12-09T14:07:42.150Z,1.83
2023-12-09T14:10:11.116Z,1.80
2023-12-09T14:12:43.409Z,1.76
2023-12-09T14:15:15.346Z,1.75
2023-12-09T14:17:45.310Z,1.76
2023-12-09T14:20:16.652Z,1.74
2023-12-09T14:22:47.385Z,1.69
2023-12-09T14:25:15.986Z,1.68
2023-12-09T14:27:44.819Z,1.68
2023-12-09T14:30:14.257Z,1.65
2023-12-09T14:32:46.246Z,1.59
2023-12-09T14:35:16.080Z,1.54
2023-12-09T14:37:49.601Z,1.54
2023-12-09T14:40:18.569Z,1.55
2023-12-09T14:42:47.060Z,1.58
2023-12-09T14:45:16.111Z,1.57
2023-12-09T14:47:53.881Z,1.60
2023-12-09T14:50:28.256Z,1.66
2023-12-09T14:52:56.792Z,1.72
2023-12-09T14:55:25.781Z,1.76
2023-12-09T14:57:54.310Z,1.80
2023-12-09T15:00:23.638Z,1.81
2023-12-09T15:02:52.095Z,1.81
2023-12-09T15:05:20.469Z,1.80
2023-12-09T15:07:49.084Z,1.77
2023-12-09T15:10:17.424Z,1.73
2023-12-09T15:12:46.510Z,1.69
2023-12-09T15:15:16.845Z,1.65
2023-12-09T15:17:45.002Z,1.61
2023-12-09T15:20:13.504Z,1.58
2023-12-09T15:22:41.991Z,1.56
2023-12-09T15:25:10.886Z,1.53
2023-12-09T15:27:40.618Z,1.51
2023-12-09T15:30:09.713Z,1.48
2023-12-09T15:32:40.938Z,1.44
2023-12-09T15:35:09.722Z,1.40
2023-12-09T15:37:38.872Z,1.40
2023-12-09T15:40:12.363Z,1.41
2023-12-09T15:42:42.321Z,1.44
2023-12-09T15:45:12.637Z,1.47
2023-12-09T15:47:41.620Z,1.51
2023-12-09T15:50:10.536Z,1.53
2023-12-09T15:52:38.887Z,1.56
2023-12-09T15:55:07.689Z,1.59
2023-12-09T15:57:36.137Z,1.63
2023-12-09T16:00:05.415Z,1.63
2023-12-09T16:02:34.437Z,1.60
2023-12-09T16:05:03.099Z,1.58
2023-12-09T16:07:31.497Z,1.55
2023-12-09T16:09:59.928Z,1.52
2023-12-09T16:12:28.650Z,1.50
2023-12-09T16:14:57.193Z,1.47
2023-12-09T16:17:26.231Z,1.45
2023-12-09T16:19:54.849Z,1.42
2023-12-09T16:22:23.559Z,1.40
2023-12-09T16:24:52.193Z,1.38
2023-12-09T16:27:20.941Z,1.37
2023-12-09T16:29:49.265Z,1.36
2023-12-09T16:32:17.858Z,1.35
2023-12-09T16:34:46.252Z,1.35
2023-12-09T16:37:14.635Z,1.34
2023-12-09T16:39:43.166Z,1.35
2023-12-09T16:42:11.861Z,1.35
2023-12-09T16:44:40.138Z,1.35
2023-12-09T16:47:08.849Z,1.39
2023-12-09T16:49:38.748Z,1.43
2023-12-09T16:52:07.151Z,1.49
2023-12-09T16:54:35.841Z,1.54
2023-12-09T16:57:04.515Z,1.57
2023-12-09T16:59:33.014Z,1.59
2023-12-09T17:02:01.673Z,1.59
2023-12-09T17:04:30.123Z,1.60
2023-12-09T17:06:58.785Z,1.61
2023-12-09T17:09:27.464Z,1.59
2023-12-09T17:11:56.813Z,1.59
2023-12-09T17:14:25.366Z,1.55
2023-12-09T17:16:55.217Z,1.51
2023-12-09T17:19:24.333Z,1.47
2023-12-09T17:21:53.043Z,1.45
2023-12-09T17:24:22.064Z,1.44
2023-12-09T17:26:50.831Z,1.42
2023-12-09T17:29:20.302Z,1.41
2023-12-09T17:31:48.832Z,1.40
2023-12-09T17:34:17.409Z,1.40
2023-12-09T17:36:46.103Z,1.39
2023-12-09T17:39:16.068Z,1.39
2023-12-09T17:41:44.946Z,1.38
2023-12-09T17:44:13.622Z,1.37
2023-12-09T17:46:43.024Z,1.37
2023-12-09T17:49:11.793Z,1.36
2023-12-09T17:51:40.553Z,1.37
2023-12-09T17:54:09.948Z,1.38
2023-12-09T17:56:40.116Z,1.39
2023-12-09T17:59:09.070Z,1.41
2023-12-09T18:01:37.648Z,1.43
2023-12-09T18:04:06.651Z,1.46
2023-12-09T18:06:35.481Z,1.48
2023-12-09T18:09:04.248Z,1.47
2023-12-09T18:11:33.000Z,1.46
2023-12-09T18:14:03.596Z,1.43
2023-12-09T18:16:33.029Z,1.38
2023-12-09T18:19:01.655Z,1.33
2023-12-09T18:21:30.188Z,1.30
2023-12-09T18:23:58.870Z,1.28
2023-12-09T18:26:27.938Z,1.25
2023-12-09T18:28:56.419Z,1.21
2023-12-09T18:31:25.198Z,1.17
2023-12-09T18:33:53.723Z,1.14
2023-12-09T18:36:25.237Z,1.12
2023-12-09T18:38:54.330Z,1.10
2023-12-09T18:41:22.872Z,1.09
2023-12-09T18:43:51.222Z,1.07
2023-12-09T18:46:21.197Z,1.07
2023-12-09T18:48:49.973Z,1.06
2023-12-09T18:51:18.407Z,1.08
2023-12-09T18:53:46.618Z,1.09
2023-12-09T18:56:15.495Z,1.11
2023-12-09T18:58:44.320Z,1.13
2023-12-09T19:01:12.807Z,1.15
2023-12-09T19:03:41.708Z,1.19
2023-12-09T19:06:10.953Z,1.22
2023-12-09T19:08:44.044Z,1.22
2023-12-09T19:11:13.350Z,1.21
2023-12-09T19:13:42.015Z,1.18
2023-12-09T19:16:10.677Z,1.15
2023-12-09T19:18:39.274Z,1.11
2023-12-09T19:21:07.948Z,1.08
2023-12-09T19:23:36.419Z,1.05
2023-12-09T19:26:05.117Z,1.00
2023-12-09T19:28:34.073Z,0.96
2023-12-09T19:31:02.414Z,0.92
2023-12-09T19:33:30.788Z,0.86
2023-12-09T19:35:59.789Z,0.80
2023-12-09T19:38:28.221Z,0.78
2023-12-09T19:40:56.567Z,0.76
2023-12-09T19:43:24.755Z,0.72
2023-12-09T19:45:53.397Z,0.70
2023-12-09T19:48:22.043Z,0.71
2023-12-09T19:50:50.587Z,0.73
2023-12-09T19:53:19.499Z,0.74
2023-12-09T19:55:47.741Z,0.74
2023-12-09T19:58:17.121Z,0.75
2023-12-09T20:00:45.845Z,0.76
2023-12-09T20:03:15.391Z,0.77
2023-12-09T20:05:44.042Z,0.75
2023-12-09T20:08:12.992Z,0.73
2023-12-09T20:10:42.596Z,0.70
2023-12-09T20:13:10.939Z,0.66
2023-12-09T20:15:39.473Z,0.62
2023-12-09T20:18:08.968Z,0.59
2023-12-09T20:20:37.402Z,0.55
2023-12-09T20:23:06.662Z,0.50
2023-12-09T20:25:35.756Z,0.44
2023-12-09T20:28:05.900Z,0.40
2023-12-09T20:30:36.538Z,0.37
2023-12-09T20:33:05.362Z,0.35
2023-12-09T20:35:34.200Z,0.33
2023-12-09T20:38:04.622Z,0.33
2023-12-09T20:40:33.072Z,0.24
2023-12-09T20:43:01.599Z,0.22
2023-12-09T20:45:30.107Z,0.26
2023-12-09T20:47:58.688Z,0.21
2023-12-09T20:50:27.168Z,0.16
2023-12-09T20:52:56.566Z,0.11
2023-12-09T20:55:25.116Z,0.08
2023-12-09T20:57:53.657Z,0.04
2023-12-09T21:00:22.178Z,0.03
2023-12-09T21:02:50.634Z,0.01
2023-12-09T21:05:19.828Z,0.03
2023-12-09T21:07:48.806Z,0.06
2023-12-09T21:10:17.456Z,0.09
2023-12-09T21:12:46.035Z,0.13
2023-12-09T21:15:14.718Z,0.17
2023-12-09T21:17:43.197Z,0.20
2023-12-09T21:20:12.000Z,0.22
2023-12-09T21:22:40.430Z,0.25
2023-12-09T21:25:11.439Z,0.25
2023-12-09T21:27:40.205Z,0.22
2023-12-09T21:30:09.122Z,0.18
2023-12-09T21:32:37.610Z,0.14
2023-12-09T21:35:07.076Z,0.11
2023-12-09T21:37:36.128Z,0.09
2023-12-09T21:40:05.606Z,0.07
2023-12-09T21:42:34.095Z,0.06
2023-12-09T21:45:03.218Z,0.06
2023-12-09T21:47:31.795Z,0.06
2023-12-09T21:50:00.461Z,0.07
2023-12-09T21:52:29.245Z,0.08
2023-12-09T21:54:57.807Z,0.11
2023-12-09T21:57:29.002Z,0.15
2023-12-09T21:59:57.579Z,0.20
2023-12-09T22:02:26.461Z,0.24
2023-12-09T22:04:56.323Z,0.25
2023-12-09T22:07:25.581Z,0.27
2023-12-09T22:09:54.173Z,0.27
2023-12-09T22:12:22.851Z,0.25
2023-12-09T22:14:51.464Z,0.21
2023-12-09T22:17:20.418Z,0.15
2023-12-09T22:19:48.796Z,0.11
2023-12-09T22:22:17.132Z,0.07
2023-12-09T22:24:45.571Z,0.05
2023-12-09T22:27:14.047Z,0.02
2023-12-09T22:29:42.418Z,0.01
2023-12-09T22:32:10.988Z,0.03
2023-12-09T22:34:39.501Z,0.04
2023-12-09T22:37:07.983Z,0.06
2023-12-09T22:39:36.436Z,0.07
2023-12-09T22:42:06.020Z,0.10
2023-12-09T22:44:34.435Z,0.10
2023-12-09T22:47:02.807Z,0.11
2023-12-09T22:49:31.706Z,0.11
2023-12-09T22:52:03.482Z,0.10
2023-12-09T22:54:34.810Z,0.06
2023-12-09T22:57:09.812Z,0.04
2023-12-09T22:59:40.156Z,0.02
2023-12-09T23:02:09.691Z,-0.02
2023-12-09T23:04:38.535Z,-0.06
2023-12-09T23:07:07.327Z,-0.08
2023-12-09T23:09:35.631Z,-0.06
2023-12-09T23:12:04.663Z,-0.03
2023-12-09T23:14:32.952Z,0.00
2023-12-09T23:17:01.483Z,0.05
2023-12-09T23:19:30.439Z,0.09
2023-12-09T23:21:58.982Z,0.13
2023-12-09T23:24:27.606Z,0.16
2023-12-09T23:26:56.318Z,0.20
2023-12-09T23:29:24.648Z,0.24
2023-12-09T23:31:53.009Z,0.26
2023-12-09T23:34:23.433Z,0.26
2023-12-09T23:36:52.020Z,0.25
2023-12-09T23:39:20.227Z,0.23
2023-12-09T23:41:49.259Z,0.19
2023-12-09T23:44:17.571Z,0.15
2023-12-09T23:46:45.848Z,0.14
2023-12-09T23:49:14.409Z,0.12
2023-12-09T23:51:43.023Z,0.10
2023-12-09T23:54:11.615Z,0.09
2023-12-09T23:56:40.196Z,0.08
2023-12-09T23:59:08.538Z,0.06
